Time;durP1;ratioP1;P1;durP2;ratioP2;P2;SDS_P1;SDS_P2;PMS_P1;PMS_P2;Temp;Humidity;BMP_temperature;BMP_pressure;BME280_temperature;BME280_humidity;BME280_pressure;Samples;Min_cycle;Max_cycle;Signal;HPM_P1;HPM_P2
2022/03/09 00:01:28;;;;;;;8.90;6.67;;;;;;;3.21;43.78;99350.53;7058258;28;20218;-79
2022/03/09 00:04:50;;;;;;;10.00;6.77;;;;;;;3.48;43.49;99388.69;7057872;28;20230;-81
2022/03/09 00:08:12;;;;;;;8.63;7.07;;;;;;;2.86;44.08;99334.38;7056248;28;20203;-80
2022/03/09 00:11:36;;;;;;;10.30;7.43;;;;;;;3.39;43.52;99360.28;7026560;28;20200;-80
2022/03/09 00:14:58;;;;;;;8.50;6.97;;;;;;;3.98;42.88;99419.34;7027331;28;20227;-80
2022/03/09 00:18:19;;;;;;;12.17;7.13;;;;;;;3.67;43.37;99422.44;7028877;28;20222;-80
2022/03/09 00:21:41;;;;;;;9.50;6.70;;;;;;;3.55;43.86;99420.94;7029740;28;20207;-80
2022/03/09 00:25:13;;;;;;;9.47;6.37;;;;;;;3.16;43.41;99358.97;7028714;28;20266;-81
2022/03/09 00:28:37;;;;;;;11.13;6.97;;;;;;;3.41;44.02;99426.72;7030120;28;20215;-82
2022/03/09 00:31:58;;;;;;;10.03;7.37;;;;;;;3.01;43.86;99375.53;7029674;28;20213;-83
2022/03/09 00:35:20;;;;;;;8.73;6.93;;;;;;;3.36;43.77;99434.34;7031468;28;20231;-83
2022/03/09 00:38:41;;;;;;;9.43;7.13;;;;;;;2.90;42.96;99375.72;7033352;28;20205;-83
2022/03/09 00:42:04;;;;;;;11.17;7.53;;;;;;;2.51;46.05;99425.47;7032034;28;20199;-83
2022/03/09 00:45:27;;;;;;;8.43;6.93;;;;;;;2.66;44.31;99357.50;7034056;28;20230;-83
2022/03/09 00:48:49;;;;;;;10.80;7.00;;;;;;;3.12;44.23;99396.69;7034136;28;20203;-83
2022/03/09 00:52:11;;;;;;;10.47;7.30;;;;;;;2.40;45.55;99412.31;7032584;28;20200;-83
2022/03/09 00:55:33;;;;;;;7.90;6.80;;;;;;;2.20;46.33;99381.31;7033321;28;20238;-82
2022/03/09 00:58:55;;;;;;;9.73;7.57;;;;;;;2.95;45.30;99422.22;7039124;28;20656;-83
2022/03/09 01:02:18;;;;;;;12.37;7.67;;;;;;;3.11;45.04;99422.47;7032280;28;20215;-83
2022/03/09 01:05:39;;;;;;;13.20;7.30;;;;;;;2.94;44.57;99433.84;7032454;28;20207;-82
2022/03/09 01:09:16;;;;;;;7.53;6.53;;;;;;;2.34;45.44;99367.63;7029760;28;20207;-83
2022/03/09 01:12:38;;;;;;;9.20;6.93;;;;;;;2.24;45.72;99374.75;6954191;28;20231;-83
2022/03/09 01:16:11;;;;;;;11.90;7.90;;;;;;;2.66;45.89;99439.22;7043992;28;20223;-82
2022/03/09 01:23:51;;;;;;;8.30;6.60;;;;;;;3.34;44.11;99438.97;7047325;28;20210;-83
2022/03/09 01:27:14;;;;;;;8.27;6.93;;;;;;;2.96;45.03;99413.25;7048560;28;20220;-82
2022/03/09 01:30:36;;;;;;;9.47;7.60;;;;;;;3.00;44.55;99427.97;7047923;28;20283;-82
2022/03/09 01:33:58;;;;;;;10.53;8.03;;;;;;;1.82;46.69;99394.56;7047477;28;20231;-82
2022/03/09 01:37:20;;;;;;;10.00;7.00;;;;;;;1.05;48.92;99381.97;7047722;28;20571;-82
2022/03/09 01:40:43;;;;;;;14.50;7.90;;;;;;;2.16;47.09;99379.94;7048881;28;20203;-82
2022/03/09 01:44:29;;;;;;;9.20;6.80;;;;;;;2.61;46.08;99412.16;7048410;28;20231;-82
2022/03/09 01:47:55;;;;;;;7.70;6.77;;;;;;;2.04;46.35;99389.03;7048189;28;20233;-82
2022/03/09 01:54:55;;;;;;;10.70;6.43;;;;;;;2.37;46.23;99382.47;7045307;28;20237;-82
2022/03/09 01:58:27;;;;;;;6.83;6.07;;;;;;;2.81;44.78;99364.09;7047566;28;20218;-82
2022/03/09 02:01:51;;;;;;;8.93;6.97;;;;;;;2.82;44.55;99399.53;7046891;28;20221;-81
2022/03/09 02:13:30;;;;;;;8.40;6.47;;;;;;;2.81;45.23;99387.19;7046364;28;20238;-82
2022/03/09 02:16:52;;;;;;;8.93;6.43;;;;;;;3.10;44.31;99372.84;7045360;28;20244;-82
2022/03/09 02:20:14;;;;;;;9.07;6.27;;;;;;;3.23;43.53;99388.50;7044119;28;20659;-82
2022/03/09 02:28:07;;;;;;;9.57;6.30;;;;;;;1.53;48.15;99390.13;7046213;28;20228;-82
2022/03/09 02:31:39;;;;;;;10.67;6.57;;;;;;;1.81;46.74;99307.84;7039187;28;20618;-86
2022/03/09 02:35:01;;;;;;;12.50;7.80;;;;;;;2.97;44.34;99377.66;7039113;28;20226;-85
2022/03/09 02:38:23;;;;;;;11.30;7.90;;;;;;;2.78;44.11;99345.72;7043463;28;20212;-85
2022/03/09 02:41:44;;;;;;;8.73;6.63;;;;;;;2.42;45.93;99402.34;7043547;28;20555;-84
2022/03/09 02:45:08;;;;;;;9.17;7.10;;;;;;;1.90;45.70;99309.66;7037041;28;20230;-84
2022/03/09 02:48:30;;;;;;;8.53;6.40;;;;;;;1.78;45.89;99339.16;7043620;28;20244;-85
2022/03/09 02:51:51;;;;;;;8.47;6.80;;;;;;;2.01;46.09;99373.34;7031524;28;20202;-85
2022/03/09 02:55:14;;;;;;;12.37;8.27;;;;;;;1.55;46.93;99332.41;7041445;28;20234;-84
2022/03/09 02:58:35;;;;;;;11.00;7.03;;;;;;;2.68;46.03;99397.31;7043633;28;20627;-84
2022/03/09 03:01:58;;;;;;;9.77;7.77;;;;;;;2.92;44.10;99398.56;7042945;28;20214;-85
2022/03/09 03:05:20;;;;;;;11.10;7.37;;;;;;;2.68;44.08;99339.59;7043456;28;20228;-85
2022/03/09 03:08:42;;;;;;;13.50;7.60;;;;;;;2.57;44.32;99318.47;7037622;28;20208;-86
2022/03/09 03:12:04;;;;;;;11.10;7.57;;;;;;;2.11;44.42;99301.53;7036065;28;20211;-85
2022/03/09 03:15:26;;;;;;;8.97;7.50;;;;;;;2.26;45.28;99362.16;7037841;28;20231;-84
2022/03/09 03:18:49;;;;;;;10.17;7.13;;;;;;;2.31;44.43;99346.63;7039377;28;20662;-84
2022/03/09 03:22:11;;;;;;;8.27;6.77;;;;;;;2.29;44.95;99400.94;7038318;28;20205;-85
2022/03/09 03:25:32;;;;;;;8.57;7.27;;;;;;;2.04;46.46;99369.56;7041193;28;20245;-84
2022/03/09 03:28:54;;;;;;;8.70;7.10;;;;;;;2.30;46.24;99400.81;7041892;28;20202;-85
2022/03/09 03:32:16;;;;;;;8.27;7.47;;;;;;;2.16;45.72;99397.72;7042156;28;20213;-83
2022/03/09 03:35:39;;;;;;;8.57;6.83;;;;;;;1.27;48.17;99386.25;7044435;28;20236;-84
2022/03/09 03:39:01;;;;;;;9.33;6.57;;;;;;;2.07;46.99;99404.69;7045949;28;20221;-86
2022/03/09 03:42:23;;;;;;;9.10;6.73;;;;;;;1.71;46.53;99362.78;7044320;28;20203;-85
2022/03/09 03:45:45;;;;;;;8.77;7.40;;;;;;;1.67;47.44;99398.56;7045187;28;20208;-83
2022/03/09 03:49:41;;;;;;;9.63;6.80;;;;;;;2.17;46.92;99402.91;7044541;28;20292;-83
2022/03/09 03:53:04;;;;;;;11.93;6.90;;;;;;;2.44;45.68;99408.41;7042292;28;20285;-82
2022/03/09 03:56:26;;;;;;;9.63;6.57;;;;;;;1.94;47.11;99384.66;7044815;28;20233;-83
2022/03/09 03:59:48;;;;;;;8.17;6.57;;;;;;;1.76;47.23;99416.38;7042834;28;20233;-83
2022/03/09 04:03:10;;;;;;;7.63;6.47;;;;;;;1.55;48.45;99402.31;7042468;28;20234;-83
2022/03/09 04:06:32;;;;;;;9.43;7.07;;;;;;;1.77;47.48;99426.03;7043168;28;20209;-83
2022/03/09 04:09:56;;;;;;;9.47;7.13;;;;;;;1.66;47.22;99428.78;7041779;28;20210;-83
2022/03/09 04:13:18;;;;;;;10.63;6.87;;;;;;;1.35;48.43;99439.56;7043913;28;20226;-83
2022/03/09 04:16:40;;;;;;;10.03;6.47;;;;;;;1.98;47.91;99450.75;7043571;28;20233;-83
2022/03/09 04:20:02;;;;;;;9.03;6.80;;;;;;;1.97;47.44;99448.22;7043630;28;20209;-83
2022/03/09 04:23:24;;;;;;;9.63;6.90;;;;;;;1.52;47.93;99449.56;7042829;28;20244;-83
2022/03/09 04:26:47;;;;;;;12.30;7.20;;;;;;;1.98;47.53;99448.06;7043099;28;20206;-84
2022/03/09 04:30:11;;;;;;;7.97;6.73;;;;;;;2.03;46.99;99429.91;7038949;28;20194;-84
2022/03/09 04:33:33;;;;;;;13.57;7.00;;;;;;;2.35;46.50;99449.13;7036600;28;20222;-84
2022/03/09 04:36:54;;;;;;;8.80;6.90;;;;;;;1.86;46.82;99422.56;7059429;28;20285;-84
2022/03/09 04:40:16;;;;;;;8.43;7.33;;;;;;;2.10;46.81;99424.84;7066300;28;20201;-84
2022/03/09 04:43:39;;;;;;;9.00;6.57;;;;;;;1.95;46.56;99439.53;7064493;28;20228;-85
2022/03/09 04:47:01;;;;;;;11.57;7.27;;;;;;;1.80;45.83;99425.78;7069437;28;20673;-84
2022/03/09 04:50:23;;;;;;;11.33;8.60;;;;;;;1.44;46.85;99415.72;7072131;28;20205;-84
2022/03/09 04:53:48;;;;;;;9.57;7.90;;;;;;;0.88;48.86;99422.38;7070986;28;20225;-84
2022/03/09 04:57:09;;;;;;;14.17;8.20;;;;;;;1.59;47.39;99438.28;7072635;28;20295;-84
2022/03/09 05:00:33;;;;;;;12.10;8.40;;;;;;;1.93;46.65;99423.72;7072663;28;20214;-83
2022/03/09 05:12:42;;;;;;;10.00;7.83;;;;;;;1.25;48.74;99444.00;7010027;28;20275;-84
2022/03/09 05:16:06;;;;;;;8.80;7.20;;;;;;;1.77;47.11;99433.19;7042071;28;20259;-84
2022/03/09 05:19:28;;;;;;;19.30;11.60;;;;;;;1.89;47.21;99448.88;7041730;28;20205;-83
2022/03/09 05:22:53;;;;;;;10.03;7.33;;;;;;;2.08;47.24;99446.25;7041310;28;20265;-84
2022/03/09 05:26:15;;;;;;;10.37;8.00;;;;;;;1.49;48.16;99450.66;7042532;28;20217;-84
2022/03/09 05:29:37;;;;;;;10.23;7.77;;;;;;;1.54;48.21;99459.09;7042007;28;20288;-84
2022/03/09 05:33:00;;;;;;;11.20;7.73;;;;;;;1.79;47.86;99463.13;7035582;28;20229;-86
2022/03/09 05:36:21;;;;;;;11.37;7.10;;;;;;;1.66;46.84;99436.75;7038116;28;20225;-85
2022/03/09 05:39:43;;;;;;;11.00;8.07;;;;;;;1.17;49.34;99476.50;7040062;28;20233;-84
2022/03/09 05:43:05;;;;;;;10.23;8.17;;;;;;;0.35;51.05;99489.66;7042824;28;20225;-83
2022/03/09 05:46:26;;;;;;;11.40;8.03;;;;;;;1.05;48.31;99405.00;7056099;28;20186;-84
2022/03/09 05:49:49;;;;;;;11.27;7.77;;;;;;;1.38;48.12;99490.63;7059139;28;20216;-82
2022/03/09 05:53:11;;;;;;;11.37;8.63;;;;;;;1.04;49.94;99481.19;7065024;28;20223;-87
2022/03/09 05:56:32;;;;;;;13.07;8.47;;;;;;;1.56;49.24;99489.06;7062643;28;20752;-86
2022/03/09 05:59:56;;;;;;;13.00;8.50;;;;;;;1.14;48.05;99407.72;7042063;28;20210;-85
2022/03/09 06:03:18;;;;;;;11.53;8.03;;;;;;;1.60;48.01;99453.25;7048326;28;20764;-83
2022/03/09 06:06:41;;;;;;;15.83;8.03;;;;;;;1.97;47.11;99478.31;7065362;28;20209;-84
2022/03/09 06:10:03;;;;;;;12.63;7.90;;;;;;;1.88;46.67;99449.00;7046334;28;20201;-84
2022/03/09 06:13:25;;;;;;;14.53;8.33;;;;;;;2.01;46.98;99482.38;7048282;28;20237;-83
2022/03/09 06:16:52;;;;;;;8.90;7.77;;;;;;;2.43;45.03;99470.56;7061484;28;20868;-86
2022/03/09 06:20:16;;;;;;;12.53;8.27;;;;;;;2.43;45.89;99483.03;7045469;28;20222;-81
2022/03/09 06:23:39;;;;;;;15.43;7.90;;;;;;;2.31;45.95;99500.91;7039867;28;20333;-81
2022/03/09 06:27:01;;;;;;;12.00;8.20;;;;;;;2.15;46.96;99502.44;7040744;28;20233;-81
2022/03/09 06:30:22;;;;;;;11.90;7.73;;;;;;;2.54;45.44;99510.34;7037728;28;20236;-83
2022/03/09 06:33:44;;;;;;;11.60;8.80;;;;;;;2.67;45.57;99516.25;7037465;28;20311;-83
2022/03/09 06:37:06;;;;;;;10.57;7.73;;;;;;;2.94;45.36;99512.91;7037309;28;20306;-83
2022/03/09 06:40:29;;;;;;;12.80;8.20;;;;;;;3.11;44.16;99515.72;7046553;28;20202;-83
2022/03/09 06:43:50;;;;;;;11.43;7.93;;;;;;;3.23;43.93;99511.91;7057649;28;20221;-83
2022/03/09 06:47:12;;;;;;;12.20;8.37;;;;;;;3.15;43.61;99505.63;7064284;28;20209;-84
2022/03/09 06:50:34;;;;;;;14.00;9.03;;;;;;;3.08;44.38;99534.63;7062780;28;20209;-83
2022/03/09 06:54:02;;;;;;;13.73;8.83;;;;;;;2.75;44.10;99465.84;7060976;28;20720;-83
2022/03/09 06:57:25;;;;;;;11.27;8.10;;;;;;;4.12;42.04;99527.41;7041092;28;20219;-84
2022/03/09 07:00:47;;;;;;;8.77;7.43;;;;;;;4.72;40.39;99522.28;7059017;28;20213;-83
2022/03/09 07:04:09;;;;;;;14.57;8.80;;;;;;;4.54;39.95;99446.63;7058436;28;20696;-84
2022/03/09 07:07:30;;;;;;;9.83;7.60;;;;;;;5.31;38.75;99444.97;7058914;28;20211;-84
2022/03/09 07:10:52;;;;;;;13.93;8.73;;;;;;;5.87;37.75;99487.31;7058377;28;20564;-83
2022/03/09 07:14:16;;;;;;;12.50;9.13;;;;;;;6.53;36.81;99462.31;7060131;28;20220;-82
2022/03/09 07:17:39;;;;;;;11.73;9.00;;;;;;;6.84;38.07;99498.22;7058432;28;20208;-82
2022/03/09 07:21:01;;;;;;;13.57;9.33;;;;;;;7.44;37.20;99517.56;7060658;28;20208;-82
2022/03/09 07:24:23;;;;;;;13.77;8.87;;;;;;;7.53;35.52;99503.97;7065240;28;20228;-83
2022/03/09 07:27:44;;;;;;;11.03;8.37;;;;;;;7.68;34.31;99478.13;7061317;28;20204;-82
2022/03/09 07:31:07;;;;;;;11.90;8.93;;;;;;;8.46;34.26;99524.75;7058167;28;20317;-80
2022/03/09 07:34:29;;;;;;;12.50;9.43;;;;;;;8.21;34.79;99529.38;7057736;28;20319;-83
2022/03/09 07:37:51;;;;;;;13.13;9.13;;;;;;;8.62;34.36;99520.16;7057664;28;20196;-81
2022/03/09 07:41:13;;;;;;;13.87;10.90;;;;;;;8.56;34.88;99512.78;7057305;28;20248;-80
2022/03/09 07:44:34;;;;;;;20.57;14.47;;;;;;;8.41;34.97;99525.28;7057586;28;20243;-81
2022/03/09 07:47:57;;;;;;;21.10;13.77;;;;;;;9.10;34.06;99522.56;7057489;28;20204;-81
2022/03/09 07:51:19;;;;;;;14.23;10.23;;;;;;;9.74;32.69;99522.88;7057321;28;20254;-81
2022/03/09 07:54:41;;;;;;;15.03;9.90;;;;;;;9.98;32.11;99505.66;7057041;28;20728;-81
2022/03/09 07:58:02;;;;;;;13.50;10.43;;;;;;;10.62;31.79;99519.22;7057203;28;20289;-80
2022/03/09 08:01:24;;;;;;;14.10;10.57;;;;;;;10.66;31.57;99527.78;7057651;28;20207;-80
2022/03/09 08:04:47;;;;;;;18.33;11.77;;;;;;;10.27;31.95;99519.16;7057169;28;20315;-81
2022/03/09 08:08:08;;;;;;;15.27;10.57;;;;;;;10.85;30.76;99529.88;7057544;28;20213;-81
2022/03/09 08:11:30;;;;;;;9.83;7.97;;;;;;;11.26;29.87;99530.97;7057695;28;20686;-80
2022/03/09 08:14:52;;;;;;;10.57;7.97;;;;;;;11.47;28.82;99525.59;7056462;28;20228;-81
2022/03/09 08:18:13;;;;;;;10.50;8.13;;;;;;;11.66;28.59;99509.59;7030165;28;20240;-81
2022/03/09 08:21:37;;;;;;;11.00;8.53;;;;;;;11.98;28.41;99517.13;7029060;28;20213;-80
2022/03/09 08:24:58;;;;;;;11.33;8.30;;;;;;;12.14;27.95;99513.28;7028191;28;20234;-80
2022/03/09 08:28:20;;;;;;;10.03;8.20;;;;;;;12.03;28.59;99506.56;7029349;28;20719;-81
2022/03/09 08:31:42;;;;;;;9.33;8.13;;;;;;;12.38;28.17;99504.69;7029466;28;20248;-81
2022/03/09 08:35:04;;;;;;;13.73;9.10;;;;;;;11.64;29.00;99487.31;7028731;28;20242;-81
2022/03/09 08:38:27;;;;;;;11.03;9.03;;;;;;;12.49;28.24;99498.72;7028682;28;20209;-82
2022/03/09 08:41:48;;;;;;;10.83;8.23;;;;;;;12.30;28.43;99489.47;7028430;28;20211;-81
2022/03/09 08:45:10;;;;;;;11.40;8.13;;;;;;;11.88;28.36;99499.59;7029137;28;20223;-81
2022/03/09 08:48:32;;;;;;;10.53;7.50;;;;;;;11.95;28.99;99486.94;7029870;28;20203;-80
2022/03/09 08:51:54;;;;;;;9.17;7.80;;;;;;;12.32;28.57;99494.66;7029960;28;20195;-81
2022/03/09 08:55:17;;;;;;;11.00;7.50;;;;;;;12.50;28.21;99493.13;7031911;28;20230;-81
2022/03/09 08:58:38;;;;;;;10.33;7.33;;;;;;;12.28;28.03;99478.00;7039846;28;20889;-81
2022/03/09 09:02:00;;;;;;;11.73;7.70;;;;;;;11.52;28.16;99483.44;7044134;28;20929;-82
2022/03/09 09:05:22;;;;;;;9.87;7.33;;;;;;;11.41;28.78;99480.47;7057139;28;20225;-81
2022/03/09 09:08:44;;;;;;;11.97;7.70;;;;;;;11.62;28.55;99494.81;7057527;28;20691;-81
2022/03/09 09:12:07;;;;;;;11.97;8.20;;;;;;;10.89;29.62;99490.72;7056295;28;20204;-81
2022/03/09 09:15:29;;;;;;;9.57;8.20;;;;;;;10.60;29.83;99423.38;7056024;28;20233;-82
2022/03/09 09:18:51;;;;;;;12.33;8.30;;;;;;;10.93;29.98;99484.75;7054742;28;20572;-81
2022/03/09 09:22:12;;;;;;;14.97;7.97;;;;;;;12.40;28.05;99489.13;7055326;28;20217;-81
2022/03/09 09:25:34;;;;;;;8.70;7.57;;;;;;;12.60;27.73;99477.34;7055939;28;20202;-81
2022/03/09 09:28:57;;;;;;;13.17;8.13;;;;;;;11.98;28.42;99481.97;7055700;28;20217;-81
2022/03/09 09:32:19;;;;;;;12.20;9.57;;;;;;;13.20;27.14;99471.09;7055574;28;20247;-81
2022/03/09 09:35:40;;;;;;;9.27;8.20;;;;;;;11.38;28.60;99480.81;7056226;28;20218;-82
2022/03/09 09:39:02;;;;;;;12.83;8.80;;;;;;;11.52;28.88;99482.63;7032717;28;20211;-81
2022/03/09 09:42:30;;;;;;;13.20;9.03;;;;;;;12.11;28.02;99465.03;7031928;28;20207;-81
2022/03/09 09:45:53;;;;;;;11.23;8.70;;;;;;;12.71;27.02;99475.94;7032502;28;20190;-81
2022/03/09 09:49:16;;;;;;;14.20;8.67;;;;;;;12.85;27.28;99469.53;7033617;28;20683;-81
2022/03/09 09:52:37;;;;;;;12.10;9.00;;;;;;;13.09;26.81;99471.72;7032111;28;20697;-81
2022/03/09 09:55:59;;;;;;;9.60;8.40;;;;;;;12.47;27.05;99471.91;7032754;28;20234;-81
2022/03/09 09:59:21;;;;;;;11.77;8.83;;;;;;;12.38;27.23;99445.19;7032469;28;20199;-81
2022/03/09 10:02:44;;;;;;;12.57;8.13;;;;;;;13.70;26.14;99471.34;7032671;28;20217;-81
2022/03/09 10:06:05;;;;;;;12.67;9.13;;;;;;;14.03;25.88;99474.03;7032943;28;20553;-81
2022/03/09 10:09:35;;;;;;;11.97;8.70;;;;;;;13.90;26.17;99471.34;7032662;28;20213;-82
2022/03/09 10:13:14;;;;;;;11.60;8.20;;;;;;;13.16;26.85;99465.28;7031775;28;20229;-81
2022/03/09 10:16:36;;;;;;;11.10;8.97;;;;;;;14.75;25.24;99472.81;7031752;28;20665;-81
2022/03/09 10:20:09;;;;;;;17.37;8.93;;;;;;;15.01;24.45;99471.88;7032439;28;20249;-81
2022/03/09 10:23:31;;;;;;;14.97;9.23;;;;;;;13.86;25.28;99473.66;7031642;28;20232;-81
2022/03/09 10:26:53;;;;;;;11.07;9.23;;;;;;;13.79;25.78;99472.81;7032414;28;20786;-81
2022/03/09 10:30:16;;;;;;;13.87;9.10;;;;;;;13.35;26.40;99467.19;7032471;28;20216;-81
2022/03/09 10:33:38;;;;;;;13.00;9.13;;;;;;;14.38;25.30;99467.31;7032161;28;20224;-82
2022/03/09 10:37:03;;;;;;;11.37;9.37;;;;;;;15.27;23.63;99463.56;7032282;28;20684;-81
2022/03/09 10:40:27;;;;;;;15.90;9.77;;;;;;;14.53;nan;99476.03;7032164;28;20189;-82
2022/03/09 10:43:50;;;;;;;11.57;9.13;;;;;;;15.99;22.87;99456.50;7043349;28;20248;-81
2022/03/09 10:47:12;;;;;;;12.37;9.20;;;;;;;14.57;24.69;99475.41;7059756;28;20205;-82
2022/03/09 10:50:33;;;;;;;17.00;9.00;;;;;;;14.55;24.67;99474.78;7044698;28;20198;-84
2022/03/09 10:53:57;;;;;;;13.60;9.87;;;;;;;13.33;25.44;99433.22;7052439;28;20250;-81
2022/03/09 10:57:18;;;;;;;11.77;9.60;;;;;;;15.11;23.98;99483.09;7059857;28;20310;-82
2022/03/09 11:00:43;;;;;;;13.77;10.67;;;;;;;15.57;23.08;99480.94;7063834;28;20215;-81
2022/03/09 11:04:16;;;;;;;12.63;9.50;;;;;;;14.43;23.73;99467.50;7071508;28;20282;-83
2022/03/09 11:07:39;;;;;;;13.37;10.80;;;;;;;15.66;22.72;99468.75;7074112;27;20189;-83
2022/03/09 11:11:03;;;;;;;13.67;10.43;;;;;;;16.33;21.73;99469.56;7057798;28;20210;-79
2022/03/09 11:14:26;;;;;;;14.27;9.80;;;;;;;16.64;22.13;99466.72;7058001;28;20639;-80
2022/03/09 11:17:49;;;;;;;15.40;10.60;;;;;;;15.73;22.18;99455.91;7058517;28;20664;-81
2022/03/09 11:21:10;;;;;;;16.03;11.67;;;;;;;16.19;21.38;99454.44;7057832;28;20185;-81
2022/03/09 11:24:34;;;;;;;16.40;10.70;;;;;;;16.06;21.65;99454.59;7062584;28;20259;-82
2022/03/09 11:27:57;;;;;;;13.37;10.83;;;;;;;16.02;21.63;99449.78;7061017;28;20211;-81
2022/03/09 11:31:20;;;;;;;13.90;11.57;;;;;;;16.55;21.42;99456.38;7057610;28;20215;-80
2022/03/09 11:34:43;;;;;;;13.20;10.67;;;;;;;16.69;20.16;99442.38;7056638;28;20319;-80
2022/03/09 11:38:38;;;;;;;14.40;10.77;;;;;;;16.06;20.27;99446.44;7050821;28;20317;-80
2022/03/09 11:42:37;;;;;;;14.73;11.27;;;;;;;17.33;20.49;99434.34;7057969;28;20265;-80
2022/03/09 11:46:00;;;;;;;13.13;10.53;;;;;;;16.31;20.97;99430.03;7058575;28;20185;-80
2022/03/09 11:49:22;;;;;;;14.80;11.13;;;;;;;16.42;21.17;99421.13;7057620;28;20215;-80
2022/03/09 11:52:56;;;;;;;15.97;11.30;;;;;;;16.64;20.72;99423.16;7056921;28;20224;-80
2022/03/09 11:56:32;;;;;;;13.33;11.07;;;;;;;16.80;20.65;99425.25;7057430;28;20215;-80
2022/03/09 12:00:09;;;;;;;15.53;11.07;;;;;;;16.77;19.88;99416.72;7057475;28;20223;-80
2022/03/09 12:03:42;;;;;;;15.90;11.10;;;;;;;17.27;20.42;99426.28;7044794;28;20232;-79
2022/03/09 12:07:04;;;;;;;15.07;12.23;;;;;;;16.64;20.48;99420.44;7057386;28;20184;-79
2022/03/09 12:10:50;;;;;;;13.63;11.50;;;;;;;17.08;20.88;99413.75;7057355;28;20206;-79
2022/03/09 12:14:11;;;;;;;18.10;11.80;;;;;;;17.26;20.70;99408.25;7049565;28;20220;-79
2022/03/09 12:17:35;;;;;;;17.13;11.77;;;;;;;17.21;20.47;99405.41;7057177;28;20699;-79
2022/03/09 12:20:58;;;;;;;20.30;12.50;;;;;;;17.38;20.65;99400.94;7058559;28;20549;-80
2022/03/09 12:24:21;;;;;;;16.07;12.83;;;;;;;17.88;20.13;99386.66;7057171;28;20377;-79
2022/03/09 12:27:43;;;;;;;16.40;12.33;;;;;;;17.03;20.16;99395.38;7058063;28;20256;-80
2022/03/09 12:31:18;;;;;;;20.27;13.73;;;;;;;17.54;20.87;99390.22;7057831;28;20300;-80
2022/03/09 12:34:42;;;;;;;16.30;12.63;;;;;;;17.21;21.23;99389.88;7056565;28;20261;-79
2022/03/09 12:38:05;;;;;;;17.23;13.50;;;;;;;16.95;20.57;99383.97;7063429;28;20247;-80
2022/03/09 12:41:28;;;;;;;18.77;13.90;;;;;;;16.13;21.12;99383.75;7057632;28;20196;-79
2022/03/09 12:44:50;;;;;;;17.37;13.87;;;;;;;17.03;21.22;99376.31;7057344;28;20252;-79
2022/03/09 12:48:17;;;;;;;16.33;12.97;;;;;;;16.36;21.81;99373.03;7057460;28;20196;-79
2022/03/09 12:51:50;;;;;;;18.43;12.87;;;;;;;17.04;20.87;99379.88;7057495;28;20262;-81
2022/03/09 12:55:18;;;;;;;20.43;13.70;;;;;;;16.88;20.73;99312.44;7058364;28;20228;-80
2022/03/09 12:58:40;;;;;;;16.40;13.43;;;;;;;16.62;21.34;99362.66;7058228;28;20232;-80
2022/03/09 13:02:01;;;;;;;19.07;13.50;;;;;;;17.17;20.41;99341.53;7057366;28;20287;-81
2022/03/09 13:05:25;;;;;;;18.00;13.77;;;;;;;16.45;21.33;99371.72;7057492;28;20220;-80
2022/03/09 13:08:47;;;;;;;21.20;14.10;;;;;;;16.39;20.90;99350.84;7061550;28;20200;-80
2022/03/09 13:12:11;;;;;;;18.30;13.50;;;;;;;17.17;20.14;99358.69;7064207;28;20231;-81
2022/03/09 13:15:38;;;;;;;18.93;13.70;;;;;;;17.95;19.56;99351.06;7062682;28;20216;-81
2022/03/09 13:19:00;;;;;;;17.17;13.03;;;;;;;18.31;18.89;99359.81;7079270;28;20229;-81
2022/03/09 13:22:23;;;;;;;19.23;13.07;;;;;;;18.22;19.12;99361.22;7065870;28;20213;-80
2022/03/09 13:25:45;;;;;;;17.87;13.53;;;;;;;18.11;18.19;99350.34;7062327;28;20185;-81
2022/03/09 13:29:16;;;;;;;19.17;12.30;;;;;;;18.38;17.66;99357.78;7061593;28;20249;-80
2022/03/09 13:32:37;;;;;;;15.53;11.90;;;;;;;18.49;17.96;99347.88;7062091;28;20232;-81
2022/03/09 13:35:59;;;;;;;15.73;11.43;;;;;;;17.37;17.30;99351.03;7061499;28;20208;-80
2022/03/09 13:39:21;;;;;;;17.03;11.80;;;;;;;16.95;18.09;99346.69;7049086;28;20237;-80
2022/03/09 13:42:44;;;;;;;15.60;11.97;;;;;;;16.24;19.25;99353.09;7033404;28;20236;-81
2022/03/09 13:46:14;;;;;;;17.00;12.73;;;;;;;16.58;18.94;99325.25;7035584;28;20201;-80
2022/03/09 13:49:46;;;;;;;18.07;12.27;;;;;;;18.01;18.39;99348.22;7033107;28;20345;-82
2022/03/09 13:53:10;;;;;;;17.17;12.07;;;;;;;17.96;18.16;99345.38;7033771;28;20298;-81
2022/03/09 13:56:33;;;;;;;16.73;12.57;;;;;;;17.26;17.96;99332.78;7032547;28;20236;-82
2022/03/09 13:59:54;;;;;;;17.33;12.53;;;;;;;17.02;18.75;99350.13;7032083;28;20210;-82
2022/03/09 14:03:19;;;;;;;16.53;11.90;;;;;;;17.24;18.16;99337.63;7031682;28;20312;-82
2022/03/09 14:06:41;;;;;;;15.27;12.00;;;;;;;18.27;17.35;99344.97;7032620;28;20198;-81
2022/03/09 14:10:14;;;;;;;17.30;11.83;;;;;;;17.86;17.57;99328.78;7034084;28;20208;-84
2022/03/09 14:13:38;;;;;;;16.97;13.13;;;;;;;18.29;17.33;99312.78;7033247;28;20354;-79
2022/03/09 14:17:00;;;;;;;18.57;12.37;;;;;;;18.54;17.18;99316.06;7036600;28;20218;-84
2022/03/09 14:20:23;;;;;;;16.97;12.43;;;;;;;18.49;16.89;99318.69;7046505;28;20256;-78
2022/03/09 14:23:47;;;;;;;17.70;13.07;;;;;;;18.95;16.75;99312.16;7033630;28;20252;-79
2022/03/09 14:27:09;;;;;;;15.73;12.27;;;;;;;19.23;16.16;99323.09;7058245;28;20211;-80
2022/03/09 14:30:30;;;;;;;14.80;11.83;;;;;;;19.13;16.40;99312.78;7062196;28;20217;-80
2022/03/09 14:33:53;;;;;;;14.97;11.90;;;;;;;18.90;16.03;99230.94;7032526;28;20320;-81
2022/03/09 14:37:16;;;;;;;17.87;12.47;;;;;;;19.22;16.14;99302.31;7033458;28;20311;-81
2022/03/09 14:40:38;;;;;;;15.13;11.83;;;;;;;19.51;15.29;99295.66;7033317;28;20209;-80
2022/03/09 14:44:00;;;;;;;15.17;11.77;;;;;;;19.37;15.71;99286.13;7033209;28;20275;-81
2022/03/09 14:47:22;;;;;;;16.60;12.60;;;;;;;19.09;15.87;99297.09;7033433;28;20350;-81
2022/03/09 14:50:44;;;;;;;16.03;11.53;;;;;;;18.78;16.49;99279.38;7033589;28;20217;-81
2022/03/09 14:54:07;;;;;;;16.83;12.53;;;;;;;17.99;16.63;99284.03;7033465;28;20836;-81
2022/03/09 14:57:29;;;;;;;16.53;12.57;;;;;;;18.74;16.39;99277.38;7035218;28;20263;-83
2022/03/09 15:00:50;;;;;;;16.60;12.43;;;;;;;18.09;17.09;99284.22;7034424;28;20220;-83
2022/03/09 15:04:13;;;;;;;18.77;13.07;;;;;;;18.52;16.78;99281.88;7033977;28;20237;-83
2022/03/09 15:07:35;;;;;;;14.63;12.40;;;;;;;18.30;16.63;99276.25;7034508;28;20666;-81
2022/03/09 15:10:58;;;;;;;17.37;12.17;;;;;;;18.43;16.70;99283.31;7035350;28;20201;-83
2022/03/09 15:14:19;;;;;;;16.10;12.43;;;;;;;18.34;16.80;99268.41;7063089;28;20222;-83
2022/03/09 15:17:41;;;;;;;15.97;12.30;;;;;;;18.05;17.23;99278.44;7048451;28;20706;-82
2022/03/09 15:21:03;;;;;;;18.13;12.70;;;;;;;18.91;17.16;99278.19;7050716;28;20294;-83
2022/03/09 15:24:24;;;;;;;21.00;13.30;;;;;;;18.65;17.68;99278.84;7045571;28;20228;-82
2022/03/09 15:27:47;;;;;;;18.10;13.13;;;;;;;19.06;16.95;99282.06;7041226;28;20201;-83
2022/03/09 15:31:09;;;;;;;19.97;12.40;;;;;;;18.00;17.21;99293.88;7041207;28;20482;-82
2022/03/09 15:34:31;;;;;;;16.07;12.73;;;;;;;17.23;18.07;99295.06;7039016;28;20225;-83
2022/03/09 15:37:52;;;;;;;17.77;12.63;;;;;;;18.22;17.65;99300.34;7038364;28;20224;-82
2022/03/09 15:41:14;;;;;;;19.37;12.83;;;;;;;17.99;17.60;99286.78;7093479;27;20196;-83
2022/03/09 15:44:37;;;;;;;16.80;12.50;;;;;;;18.34;17.47;99285.63;7090219;27;20224;-83
2022/03/09 15:47:58;;;;;;;20.40;13.33;;;;;;;18.06;17.42;99280.13;7051122;28;20201;-83
2022/03/09 15:51:20;;;;;;;18.10;13.93;;;;;;;18.38;17.70;99278.59;7064479;28;20274;-83
2022/03/09 15:54:42;;;;;;;17.83;13.30;;;;;;;18.16;17.52;99288.50;7065556;28;20227;-82
2022/03/09 15:58:04;;;;;;;16.03;12.37;;;;;;;17.83;17.91;99290.22;7061441;28;20222;-83
2022/03/09 16:01:27;;;;;;;18.17;13.67;;;;;;;18.59;17.78;99280.66;7056481;28;20290;-83
2022/03/09 16:04:49;;;;;;;20.57;13.90;;;;;;;18.67;17.70;99263.03;7047451;28;20220;-83
2022/03/09 16:08:11;;;;;;;20.80;13.70;;;;;;;18.26;18.13;99274.22;7049471;28;20216;-83
2022/03/09 16:11:32;;;;;;;17.27;12.83;;;;;;;18.31;18.11;99268.84;7046999;28;20231;-83
2022/03/09 16:14:54;;;;;;;19.87;14.27;;;;;;;18.08;18.35;99283.41;7055499;28;20224;-83
2022/03/09 16:18:17;;;;;;;16.70;13.00;;;;;;;18.54;17.98;99277.84;7056622;28;20666;-82